Blidosund — SDKG — position and weather

sailwx.info

Track history (hours):
 
Tides and Currents Weather Stations Pressure Air Temp Water Temp Dewpoint Dewpoint Depression Visibility Wind Speed Wind Dir Waves Ship Positions

Blidosund

Last reported at 2016-Jun-30 17:10 UTC. Time now 2016-Jun-30 17:44 UTC.
Position N 59°20' E 018°11'.

Length 35 m; draft 3 m.

Type: Passenger vessel. MMSI: 265522680.

Date/timePositionNaut miles runAvg speedWind from/ knotsBaromVisibWave heightAir tempDewpointWater temp
2016-Jun-30 17:10N 59°20' E 018°11'3 5.3
2016-Jun-30 16:34N 59°20' E 018°05'0 0.0
2016-Jun-30 13:16N 59°20' E 018°05'0 0.0
2016-Jun-30 12:29N 59°20' E 018°05'0 0.0
2016-Jun-30 11:31N 59°20' E 018°05'0 0.0
2016-Jun-30 10:33N 59°20' E 018°05'0 0.0
2016-Jun-30 09:09N 59°20' E 018°05'0 0.0
2016-Jun-30 08:33N 59°20' E 018°05'0 0.0
2016-Jun-30 07:33N 59°20' E 018°05'0 0.0
2016-Jun-30 06:33N 59°20' E 018°05'0 0.0
2016-Jun-30 05:33N 59°20' E 018°05'0 0.0
2016-Jun-30 04:33N 59°20' E 018°05'0 0.0
2016-Jun-29 20:27N 59°20' E 018°05'4 1.3
2016-Jun-29 17:18N 59°20' E 018°12'4 5.4
2016-Jun-29 16:34N 59°20' E 018°05'0 0.0
2016-Jun-29 15:33N 59°20' E 018°05'0 0.0
2016-Jun-29 14:27N 59°20' E 018°05'0 0.0
2016-Jun-29 13:33N 59°20' E 018°05'0 0.0
2016-Jun-29 12:33N 59°20' E 018°05'0 0.0
2016-Jun-29 11:26N 59°20' E 018°05'0 0.0
2016-Jun-29 10:33N 59°20' E 018°05'0 0.0
2016-Jun-29 09:33N 59°20' E 018°05'0 0.0
2016-Jun-29 07:33N 59°20' E 018°05'0 0.0
2016-Jun-29 06:34N 59°20' E 018°05'0 0.0
2016-Jun-29 05:33N 59°20' E 018°05'0 0.0
2016-Jun-29 04:32N 59°20' E 018°05'0 0.0
2016-Jun-29 03:31N 59°20' E 018°05'0 0.0
2016-Jun-29 02:33N 59°20' E 018°05'0 0.0
2016-Jun-29 01:30N 59°20' E 018°05'0 0.0
2016-Jun-29 00:29N 59°20' E 018°05'0 0.0
2016-Jun-28 23:25N 59°20' E 018°05'0 0.0
2016-Jun-28 22:33N 59°20' E 018°05'0 0.0
2016-Jun-28 21:33N 59°20' E 018°05'0 0.0
2016-Jun-28 20:33N 59°20' E 018°05'4 1.0
2016-Jun-28 17:11N 59°20' E 018°11'4 5.7
2016-Jun-28 16:33N 59°20' E 018°05'0 0.0
2016-Jun-28 13:33N 59°20' E 018°05'0 0.0
2016-Jun-28 11:30N 59°20' E 018°05'0 0.0
2016-Jun-28 10:33N 59°20' E 018°05'0 0.0
2016-Jun-28 09:33N 59°20' E 018°05'0 0.0
2016-Jun-28 04:33N 59°20' E 018°05'0 0.0
2016-Jun-28 03:33N 59°20' E 018°05'0 0.0
2016-Jun-28 02:33N 59°20' E 018°05'0 0.0
2016-Jun-28 01:33N 59°20' E 018°05'0 0.0
2016-Jun-27 20:18N 59°20' E 018°05'3 1.0
2016-Jun-27 17:07N 59°20' E 018°11'3 5.8
2016-Jun-27 16:33N 59°20' E 018°05'0 0.0
2016-Jun-27 15:32N 59°20' E 018°05'0 0.0
2016-Jun-27 14:33N 59°20' E 018°05'0 0.0
2016-Jun-27 13:33N 59°20' E 018°05'0 0.0
2016-Jun-27 12:13N 59°20' E 018°05'0 0.0
2016-Jun-27 09:28N 59°20' E 018°05'0 0.0
2016-Jun-27 08:31N 59°20' E 018°05'0 0.0
2016-Jun-27 07:30N 59°20' E 018°05'0 0.0
2016-Jun-27 06:33N 59°20' E 018°05'0 0.0
2016-Jun-27 05:28N 59°20' E 018°05'0 0.0
2016-Jun-27 04:30N 59°20' E 018°05'0 0.0
2016-Jun-27 03:33N 59°20' E 018°05'0 0.0
2016-Jun-27 00:33N 59°20' E 018°05'0 0.0
2016-Jun-26 23:32N 59°20' E 018°05'0 0.0
2016-Jun-26 22:33N 59°20' E 018°05'0 0.0
2016-Jun-26 21:33N 59°20' E 018°05'0 0.0
2016-Jun-26 20:33N 59°20' E 018°05'  
2016-Jun-24 04:33N 59°20' E 018°05'0 0.0
2016-Jun-24 03:33N 59°20' E 018°05'0 0.0
2016-Jun-24 02:33N 59°20' E 018°05'0 0.0
2016-Jun-24 01:33N 59°20' E 018°05'0 0.0
2016-Jun-24 00:33N 59°20' E 018°05'0 0.0
2016-Jun-23 23:33N 59°20' E 018°05'0 0.0
2016-Jun-22 20:23N 59°20' E 018°05'4 1.3
2016-Jun-22 17:15N 59°20' E 018°12'4 5.8
2016-Jun-22 16:33N 59°20' E 018°05'0 0.0
2016-Jun-20 20:16N 59°20' E 018°05'1 1.7
2016-Jun-20 19:32N 59°19' E 018°06'3 1.6
2016-Jun-20 17:24N 59°20' E 018°12'  
Track history (hours):
 
Tides and Currents Weather Stations Pressure Air Temp Water Temp Dewpoint Dewpoint Depression Visibility Wind Speed Wind Dir Waves Ship Positions

Blidosund

Last reported at 2016-Jun-30 17:10 UTC. Time now 2016-Jun-30 17:44 UTC.
Position N 59°20' E 018°11'.

Length 35 m; draft 3 m.

Type: Passenger vessel. MMSI: 265522680.

Date/timePositionNaut miles runAvg speedWind from/ knotsBaromVisibWave heightAir tempDewpointWater temp
2016-Jun-30 17:10N 59°20' E 018°11'3 5.3
2016-Jun-30 16:34N 59°20' E 018°05'0 0.0
2016-Jun-30 13:16N 59°20' E 018°05'0 0.0
2016-Jun-30 12:29N 59°20' E 018°05'0 0.0
2016-Jun-30 11:31N 59°20' E 018°05'0 0.0
2016-Jun-30 10:33N 59°20' E 018°05'0 0.0
2016-Jun-30 09:09N 59°20' E 018°05'0 0.0
2016-Jun-30 08:33N 59°20' E 018°05'0 0.0
2016-Jun-30 07:33N 59°20' E 018°05'0 0.0
2016-Jun-30 06:33N 59°20' E 018°05'0 0.0
2016-Jun-30 05:33N 59°20' E 018°05'0 0.0
2016-Jun-30 04:33N 59°20' E 018°05'0 0.0
2016-Jun-29 20:27N 59°20' E 018°05'4 1.3
2016-Jun-29 17:18N 59°20' E 018°12'4 5.4
2016-Jun-29 16:34N 59°20' E 018°05'0 0.0
2016-Jun-29 15:33N 59°20' E 018°05'0 0.0
2016-Jun-29 14:27N 59°20' E 018°05'0 0.0
2016-Jun-29 13:33N 59°20' E 018°05'0 0.0
2016-Jun-29 12:33N 59°20' E 018°05'0 0.0
2016-Jun-29 11:26N 59°20' E 018°05'0 0.0
2016-Jun-29 10:33N 59°20' E 018°05'0 0.0
2016-Jun-29 09:33N 59°20' E 018°05'0 0.0
2016-Jun-29 07:33N 59°20' E 018°05'0 0.0
2016-Jun-29 06:34N 59°20' E 018°05'0 0.0
2016-Jun-29 05:33N 59°20' E 018°05'0 0.0
2016-Jun-29 04:32N 59°20' E 018°05'0 0.0
2016-Jun-29 03:31N 59°20' E 018°05'0 0.0
2016-Jun-29 02:33N 59°20' E 018°05'0 0.0
2016-Jun-29 01:30N 59°20' E 018°05'0 0.0
2016-Jun-29 00:29N 59°20' E 018°05'0 0.0
2016-Jun-28 23:25N 59°20' E 018°05'0 0.0
2016-Jun-28 22:33N 59°20' E 018°05'0 0.0
2016-Jun-28 21:33N 59°20' E 018°05'0 0.0
2016-Jun-28 20:33N 59°20' E 018°05'4 1.0
2016-Jun-28 17:11N 59°20' E 018°11'4 5.7
2016-Jun-28 16:33N 59°20' E 018°05'0 0.0
2016-Jun-28 13:33N 59°20' E 018°05'0 0.0
2016-Jun-28 11:30N 59°20' E 018°05'0 0.0
2016-Jun-28 10:33N 59°20' E 018°05'0 0.0
2016-Jun-28 09:33N 59°20' E 018°05'0 0.0
2016-Jun-28 04:33N 59°20' E 018°05'0 0.0
2016-Jun-28 03:33N 59°20' E 018°05'0 0.0
2016-Jun-28 02:33N 59°20' E 018°05'0 0.0
2016-Jun-28 01:33N 59°20' E 018°05'0 0.0
2016-Jun-27 20:18N 59°20' E 018°05'3 1.0
2016-Jun-27 17:07N 59°20' E 018°11'3 5.8
2016-Jun-27 16:33N 59°20' E 018°05'0 0.0
2016-Jun-27 15:32N 59°20' E 018°05'0 0.0
2016-Jun-27 14:33N 59°20' E 018°05'0 0.0
2016-Jun-27 13:33N 59°20' E 018°05'0 0.0
2016-Jun-27 12:13N 59°20' E 018°05'0 0.0
2016-Jun-27 09:28N 59°20' E 018°05'0 0.0
2016-Jun-27 08:31N 59°20' E 018°05'0 0.0
2016-Jun-27 07:30N 59°20' E 018°05'0 0.0
2016-Jun-27 06:33N 59°20' E 018°05'0 0.0
2016-Jun-27 05:28N 59°20' E 018°05'0 0.0
2016-Jun-27 04:30N 59°20' E 018°05'0 0.0
2016-Jun-27 03:33N 59°20' E 018°05'0 0.0
2016-Jun-27 00:33N 59°20' E 018°05'0 0.0
2016-Jun-26 23:32N 59°20' E 018°05'0 0.0
2016-Jun-26 22:33N 59°20' E 018°05'0 0.0
2016-Jun-26 21:33N 59°20' E 018°05'0 0.0
2016-Jun-26 20:33N 59°20' E 018°05'  
2016-Jun-24 04:33N 59°20' E 018°05'0 0.0
2016-Jun-24 03:33N 59°20' E 018°05'0 0.0
2016-Jun-24 02:33N 59°20' E 018°05'0 0.0
2016-Jun-24 01:33N 59°20' E 018°05'0 0.0
2016-Jun-24 00:33N 59°20' E 018°05'0 0.0
2016-Jun-23 23:33N 59°20' E 018°05'0 0.0
2016-Jun-22 20:23N 59°20' E 018°05'4 1.3
2016-Jun-22 17:15N 59°20' E 018°12'4 5.8
2016-Jun-22 16:33N 59°20' E 018°05'0 0.0
2016-Jun-20 20:16N 59°20' E 018°05'1 1.7
2016-Jun-20 19:32N 59°19' E 018°06'3 1.6
2016-Jun-20 17:24N 59°20' E 018°12'  

Dump ship's entire track history